Aérodrome :
LOGIN :

S'inscrire | Disclaimer

   EN    FR    IT 

 










Légende :    VFR   VFR Marginal   IFR   IFR Intensif   IFR Très Intensif
Visi : 
Plafond : 
>= 8 km
>= 3000ft
5 à 8 km
1000 à 3000 ft
1500m à 5 km
500 à 1000 ft
800 à 1500m
200 à 500 ft
< 800m
< 200 ft
Symboles :   Orages  Brouillard  Fortes neiges  Fortes précipitations  Vent > 20 kt
SIGMETs :   Divers  Orages  Givrage  Turbulence  Onde Orograph.  Cendres Volcan.






- Altitude de l'aérodrome : 19 ft
- Code IATA : BEB


EGPL - Benbecula

DERNIER METAR :
  • 150050Z AUTO 03008KT 9999 NCD 03/M00 Q1020

METARs EXPIRÉS :
  • 150020Z AUTO 04008KT 9999 NCD 02/M00 Q1020
  • 142350Z AUTO 36006KT 9999 NCD 03/M00 Q1020
  • 142320Z AUTO 01009KT 9999 NCD 03/M00 Q1020
  • 142250Z AUTO 02011KT 9999 FEW014/// SCT036/// BKN048/// 04/01 Q1020
  • 142220Z AUTO 36009KT 9999 BKN026/// 04/02 Q1020

Prévision TAF périmée.
ATIS : +44 1870 604 818



MET'MAP, la Météo Aéronautique d'un coup d'oeil ! - Copyright ORBIFLY Décembre 2007 - Disclaimer

ORBIFLY MET'MAP TEAM :

Programmation & Développement : Alexandra Zaïnal
Conception & Développement : Baudouin d'Aumeries
Co-Programmation & Développement : Marc-Olivier Méhu
Soutien technique & logistique : Manuel Goepfert

Contact : metmap@orbifly.com




SOURCES & CREDITS :

   NOAA